Time;durP1;ratioP1;P1;durP2;ratioP2;P2;SDS_P1;SDS_P2;PMS_P1;PMS_P2;Temp;Humidity;BMP_temperature;BMP_pressure;BME280_temperature;BME280_humidity;BME280_pressure;Samples;Min_cycle;Max_cycle;Signal;HPM_P1;HPM_P2
2024/02/12 00:02:18;;;;;;;;;;;;;;;15.67;53.59;100074.28;5030045;28;1158;-54
2024/02/12 00:04:50;;;;;;;;;;;;;;;15.47;53.93;100067.00;5033410;28;1128;-55
2024/02/12 00:07:16;;;;;;;;;;;;;;;15.39;54.05;100062.16;5037443;28;1911;-51
2024/02/12 00:09:45;;;;;;;;;;;;;;;16.03;53.11;100056.78;5035248;28;1161;-52
2024/02/12 00:12:11;;;;;;;;;;;;;;;17.35;49.72;100052.84;5037329;28;1079;-53
2024/02/12 00:14:40;;;;;;;;;;;;;;;17.04;50.44;100052.44;5020274;28;1083;-54
2024/02/12 00:17:05;;;;;;;;;;;;;;;16.28;52.54;100055.72;5018022;28;1057;-50
2024/02/12 00:19:34;;;;;;;;;;;;;;;15.97;53.06;100049.69;5017467;28;2671;-54
2024/02/12 00:22:02;;;;;;;;;;;;;;;15.72;53.80;100037.78;5021352;28;1241;-53
2024/02/12 00:24:30;;;;;;;;;;;;;;;15.63;53.87;100034.84;5022082;28;1037;-51
2024/02/12 00:27:02;;;;;;;;;;;;;;;15.49;53.98;100042.09;5037315;28;1909;-53
2024/02/12 00:29:28;;;;;;;;;;;;;;;15.43;54.25;100034.97;5029543;28;1151;-53
2024/02/12 00:31:56;;;;;;;;;;;;;;;16.69;51.67;100038.00;5029784;28;1062;-56
2024/02/12 00:34:23;;;;;;;;;;;;;;;17.33;49.55;100033.09;5033451;28;1122;-52
2024/02/12 00:36:49;;;;;;;;;;;;;;;16.35;52.21;100026.00;5037084;28;1047;-53
2024/02/12 00:39:14;;;;;;;;;;;;;;;16.01;53.09;100029.63;5023522;28;1039;-54
2024/02/12 00:41:40;;;;;;;;;;;;;;;15.81;53.28;100027.06;5024327;28;1135;-55
2024/02/12 00:44:06;;;;;;;;;;;;;;;15.64;53.82;100020.06;5036216;28;1186;-56
2024/02/12 00:46:31;;;;;;;;;;;;;;;15.50;53.92;100017.13;5027225;28;1913;-54
2024/02/12 00:48:57;;;;;;;;;;;;;;;15.64;53.69;99992.66;5034778;28;2634;-53
2024/02/12 00:51:23;;;;;;;;;;;;;;;17.20;50.19;100000.88;5017553;28;1125;-53
2024/02/12 00:53:48;;;;;;;;;;;;;;;17.03;50.18;100021.41;5035499;28;1076;-52
2024/02/12 00:56:16;;;;;;;;;;;;;;;16.30;52.20;100004.13;5024823;28;1123;-53
2024/02/12 00:58:45;;;;;;;;;;;;;;;16.01;52.77;99995.91;5035160;28;1040;-55
2024/02/12 01:01:11;;;;;;;;;;;;;;;15.81;53.23;100003.22;5036757;28;1047;-53
2024/02/12 01:03:36;;;;;;;;;;;;;;;15.66;53.72;100006.06;5036199;28;1213;-51
2024/02/12 01:06:02;;;;;;;;;;;;;;;15.53;53.82;100007.53;5034447;28;1913;-52
2024/02/12 01:08:28;;;;;;;;;;;;;;;15.42;53.85;100003.19;5017348;28;1028;-53
2024/02/12 01:10:53;;;;;;;;;;;;;;;16.67;51.63;99997.13;5027439;28;1110;-51
2024/02/12 01:13:19;;;;;;;;;;;;;;;17.62;48.98;100004.63;5036349;28;1062;-51
2024/02/12 01:15:49;;;;;;;;;;;;;;;16.53;51.65;99985.22;5024322;28;1330;-55
2024/02/12 01:18:17;;;;;;;;;;;;;;;16.05;53.04;99995.03;5031168;28;2469;-48
2024/02/12 01:20:44;;;;;;;;;;;;;;;15.89;53.43;99999.03;5016630;28;1036;-54
2024/02/12 01:23:12;;;;;;;;;;;;;;;15.71;53.50;99986.81;5023708;28;926;-50
2024/02/12 01:25:38;;;;;;;;;;;;;;;15.56;53.81;99982.28;5034876;28;1969;-52
2024/02/12 01:28:06;;;;;;;;;;;;;;;15.50;53.88;99976.03;5030009;28;1031;-50
2024/02/12 01:30:34;;;;;;;;;;;;;;;15.60;53.97;99988.00;5029598;28;1128;-50
2024/02/12 01:33:01;;;;;;;;;;;;;;;17.09;50.54;99976.28;5025013;28;1043;-53
2024/02/12 01:35:27;;;;;;;;;;;;;;;17.02;50.39;99975.03;5023404;28;1109;-52
2024/02/12 01:37:53;;;;;;;;;;;;;;;16.28;52.11;99972.63;5027763;28;1217;-53
2024/02/12 01:40:18;;;;;;;;;;;;;;;15.97;52.90;99984.69;5029443;28;1016;-53
2024/02/12 01:42:44;;;;;;;;;;;;;;;15.76;53.47;99969.53;5016519;28;1079;-51
2024/02/12 01:45:13;;;;;;;;;;;;;;;15.63;53.64;99979.25;5031134;28;1056;-54
2024/02/12 01:47:46;;;;;;;;;;;;;;;15.46;53.97;99977.72;5035761;28;1976;-54
2024/02/12 01:50:12;;;;;;;;;;;;;;;16.39;52.35;99979.63;5032171;28;1036;-56
2024/02/12 01:52:49;;;;;;;;;;;;;;;17.52;49.25;99967.13;5034657;28;1084;-54
2024/02/12 01:55:15;;;;;;;;;;;;;;;16.43;51.78;99964.22;5034733;28;1068;-55
2024/02/12 01:57:46;;;;;;;;;;;;;;;16.03;52.88;99969.00;5035539;28;1160;-55
2024/02/12 02:00:17;;;;;;;;;;;;;;;15.84;53.44;99977.97;5029047;28;1061;-55
2024/02/12 02:02:56;;;;;;;;;;;;;;;15.71;53.55;99965.72;5028253;28;1227;-55
2024/02/12 02:05:21;;;;;;;;;;;;;;;15.54;53.80;99966.16;5014955;28;1913;-54
2024/02/12 02:07:52;;;;;;;;;;;;;;;15.84;53.39;99968.94;5030721;28;1127;-55
2024/02/12 02:10:19;;;;;;;;;;;;;;;17.30;49.84;99959.50;5029382;28;1178;-55
2024/02/12 02:12:46;;;;;;;;;;;;;;;16.89;50.54;99963.66;5033474;28;1071;-54
2024/02/12 02:15:12;;;;;;;;;;;;;;;16.27;52.26;99960.00;5016364;28;1012;-56
2024/02/12 02:17:39;;;;;;;;;;;;;;;15.92;53.04;99957.31;5031987;28;1136;-51
2024/02/12 02:20:07;;;;;;;;;;;;;;;15.84;53.23;99960.72;5025977;28;2676;-52
2024/02/12 02:22:32;;;;;;;;;;;;;;;15.61;53.49;99960.31;5034517;28;1036;-55
2024/02/12 02:24:59;;;;;;;;;;;;;;;15.46;53.98;99957.69;5035477;28;1035;-55
2024/02/12 02:27:25;;;;;;;;;;;;;;;15.48;53.70;99966.47;5034789;28;1971;-54
2024/02/12 02:29:51;;;;;;;;;;;;;;;16.62;51.61;99956.03;5017060;28;1087;-52
2024/02/12 02:32:16;;;;;;;;;;;;;;;17.57;48.93;99949.72;5027495;28;1152;-53
2024/02/12 02:34:43;;;;;;;;;;;;;;;16.56;51.35;99948.97;5020072;28;1063;-52
2024/02/12 02:37:10;;;;;;;;;;;;;;;16.08;52.55;99955.25;5030668;28;1096;-53
2024/02/12 02:39:36;;;;;;;;;;;;;;;15.90;52.95;99945.84;5023000;28;1186;-52
2024/02/12 02:42:03;;;;;;;;;;;;;;;15.78;53.08;99959.06;5032916;28;1179;-51
2024/02/12 02:44:29;;;;;;;;;;;;;;;15.59;53.79;99954.31;5029472;28;1043;-52
2024/02/12 02:46:55;;;;;;;;;;;;;;;15.52;53.84;99956.56;5036576;28;1918;-53
2024/02/12 02:49:21;;;;;;;;;;;;;;;16.10;52.89;99952.22;5026010;28;2646;-54
2024/02/12 02:51:47;;;;;;;;;;;;;;;17.39;49.54;99946.72;5032473;28;1028;-53
2024/02/12 02:54:14;;;;;;;;;;;;;;;16.55;51.35;99950.06;5018845;28;1055;-53
2024/02/12 02:56:39;;;;;;;;;;;;;;;16.11;52.40;99942.91;5031312;28;1056;-53
2024/02/12 02:59:06;;;;;;;;;;;;;;;15.83;53.01;99940.69;5024869;28;1203;-53
2024/02/12 03:01:31;;;;;;;;;;;;;;;15.68;53.60;99951.75;5038460;28;1059;-54
2024/02/12 03:03:57;;;;;;;;;;;;;;;15.54;53.70;99948.88;5038911;28;1020;-54
2024/02/12 03:06:26;;;;;;;;;;;;;;;15.43;54.01;99941.84;5035139;28;1894;-54
2024/02/12 03:08:51;;;;;;;;;;;;;;;15.34;54.26;99939.69;5029412;28;1187;-55
2024/02/12 03:11:18;;;;;;;;;;;;;;;16.77;51.11;99942.09;5035474;28;1044;-55
2024/02/12 03:13:44;;;;;;;;;;;;;;;17.06;50.18;99943.09;5029194;28;1135;-52
2024/02/12 03:16:16;;;;;;;;;;;;;;;16.24;52.17;99944.94;5031993;28;1168;-51
2024/02/12 03:18:41;;;;;;;;;;;;;;;15.91;53.04;99940.06;5021952;28;2003;-52
2024/02/12 03:21:09;;;;;;;;;;;;;;;15.76;53.43;99951.16;5037073;28;1048;-54
2024/02/12 03:23:35;;;;;;;;;;;;;;;15.53;53.99;99945.31;5034913;28;1076;-53
2024/02/12 03:26:02;;;;;;;;;;;;;;;15.49;54.05;99943.44;5025273;28;1978;-54
2024/02/12 03:28:27;;;;;;;;;;;;;;;15.40;53.84;99946.81;5035793;28;1198;-54
2024/02/12 03:30:53;;;;;;;;;;;;;;;16.77;50.92;99930.28;5020675;28;1143;-50
2024/02/12 03:33:18;;;;;;;;;;;;;;;17.18;49.52;99932.50;5029288;28;1413;-54
2024/02/12 03:35:44;;;;;;;;;;;;;;;16.32;51.87;99925.09;5026251;28;1201;-53
2024/02/12 03:38:09;;;;;;;;;;;;;;;15.88;53.01;99915.97;5029262;28;1143;-54
2024/02/12 03:40:35;;;;;;;;;;;;;;;15.73;53.26;99913.34;5021074;28;1167;-51
2024/02/12 03:43:01;;;;;;;;;;;;;;;15.54;53.73;99915.97;5018531;28;1072;-52
2024/02/12 03:45:26;;;;;;;;;;;;;;;15.50;53.85;99906.69;5034819;28;1979;-50
2024/02/12 03:47:53;;;;;;;;;;;;;;;16.47;51.76;99915.06;5028395;28;2691;-54
2024/02/12 04:01:17;;;;;;;;;;;;;;;15.53;53.66;99895.19;5037406;28;881;-53
2024/02/12 04:03:42;;;;;;;;;;;;;;;15.36;54.14;99896.44;5038256;28;1039;-55
2024/02/12 04:06:12;;;;;;;;;;;;;;;16.38;52.00;99891.00;5037265;28;1914;-55
2024/02/12 04:08:42;;;;;;;;;;;;;;;17.50;48.83;99894.31;5037737;28;1091;-55
2024/02/12 04:11:11;;;;;;;;;;;;;;;16.43;51.56;99893.66;5022069;28;1154;-50
2024/02/12 04:13:37;;;;;;;;;;;;;;;15.94;52.87;99891.25;5017897;28;1054;-53
2024/02/12 04:16:03;;;;;;;;;;;;;;;15.72;53.44;99884.31;5017638;28;997;-51
2024/02/12 04:18:31;;;;;;;;;;;;;;;15.60;53.60;99892.94;5020583;28;2437;-54
2024/02/12 04:20:59;;;;;;;;;;;;;;;15.49;54.01;99896.88;5033282;28;1035;-54
2024/02/12 04:23:25;;;;;;;;;;;;;;;16.53;51.52;99894.66;5031009;28;1202;-55
2024/02/12 04:25:50;;;;;;;;;;;;;;;17.49;48.88;99892.69;5036696;28;1906;-54
2024/02/12 04:28:18;;;;;;;;;;;;;;;16.42;51.79;99897.53;5030248;28;1023;-53
2024/02/12 04:30:44;;;;;;;;;;;;;;;16.03;52.56;99901.31;5017830;28;1102;-56
2024/02/12 04:33:10;;;;;;;;;;;;;;;15.82;53.16;99902.59;5026859;28;1076;-54
2024/02/12 04:35:36;;;;;;;;;;;;;;;15.73;53.26;99908.69;5022222;28;1160;-50
2024/02/12 04:38:02;;;;;;;;;;;;;;;15.56;53.70;99895.41;5017385;28;1145;-51
2024/02/12 04:40:28;;;;;;;;;;;;;;;15.42;54.06;99907.31;5033627;28;1108;-51
2024/02/12 04:42:53;;;;;;;;;;;;;;;16.96;50.42;99899.28;5027269;28;1123;-53
2024/02/12 04:45:20;;;;;;;;;;;;;;;17.31;49.44;99905.38;5033183;28;1084;-56
2024/02/12 04:47:47;;;;;;;;;;;;;;;16.33;51.87;99909.47;5031045;28;2458;-53
2024/02/12 04:50:13;;;;;;;;;;;;;;;15.99;52.69;99916.69;5030399;28;1162;-54
2024/02/12 04:52:39;;;;;;;;;;;;;;;15.77;53.19;99921.81;5016903;28;1079;-56
2024/02/12 04:55:04;;;;;;;;;;;;;;;15.67;53.41;99919.97;5033283;28;1051;-54
2024/02/12 04:57:30;;;;;;;;;;;;;;;15.53;53.63;99928.88;5036516;28;1094;-51
2024/02/12 04:59:56;;;;;;;;;;;;;;;15.73;53.54;99925.13;5030870;28;1070;-50
2024/02/12 05:02:22;;;;;;;;;;;;;;;17.23;49.72;99926.09;5026142;28;1079;-49
2024/02/12 05:04:47;;;;;;;;;;;;;;;16.85;50.40;99915.91;5036477;28;1032;-54
2024/02/12 05:07:13;;;;;;;;;;;;;;;16.21;52.18;99918.09;5035922;28;1902;-51
2024/02/12 05:09:39;;;;;;;;;;;;;;;15.98;52.70;99920.53;5021170;28;1243;-52
2024/02/12 05:12:05;;;;;;;;;;;;;;;15.75;53.37;99922.09;5016926;28;1098;-51
2024/02/12 05:14:31;;;;;;;;;;;;;;;15.62;53.46;99928.25;5019214;28;1048;-53
2024/02/12 05:17:03;;;;;;;;;;;;;;;16.86;50.80;99919.47;5036347;28;1031;-52
2024/02/12 05:24:58;;;;;;;;;;;;;;;16.10;50.55;99919.31;5016743;28;842;-53
2024/02/12 05:27:24;;;;;;;;;;;;;;;16.45;51.01;99926.31;5032042;28;1973;-55
2024/02/12 05:29:51;;;;;;;;;;;;;;;17.77;48.93;99918.34;5016645;28;1114;-53
2024/02/12 05:32:18;;;;;;;;;;;;;;;16.57;50.73;99920.41;5018785;28;1052;-51
2024/02/12 05:34:46;;;;;;;;;;;;;;;17.55;49.84;99927.22;5036195;28;1139;-53
2024/02/12 05:37:12;;;;;;;;;;;;;;;17.57;49.35;99923.06;5020089;28;1011;-50
2024/02/12 05:39:38;;;;;;;;;;;;;;;16.72;50.27;99917.47;5025395;28;1048;-53
2024/02/12 05:42:04;;;;;;;;;;;;;;;16.49;49.43;99921.06;5022914;28;1055;-54
2024/02/12 05:44:32;;;;;;;;;;;;;;;17.88;49.36;99919.78;5026811;28;1015;-55
2024/02/12 05:46:59;;;;;;;;;;;;;;;16.99;50.23;99927.00;5029313;28;1905;-54
2024/02/12 05:49:25;;;;;;;;;;;;;;;16.63;49.78;99938.44;5015911;28;1955;-53
2024/02/12 05:51:51;;;;;;;;;;;;;;;16.42;48.86;99935.97;5029737;28;1040;-54
2024/02/12 05:54:17;;;;;;;;;;;;;;;17.78;49.69;99937.28;5026303;28;1004;-50
2024/02/12 05:56:42;;;;;;;;;;;;;;;17.13;50.66;99945.50;5033156;28;1115;-54
2024/02/12 05:59:09;;;;;;;;;;;;;;;16.74;49.96;99952.84;5026311;28;1151;-49
2024/02/12 06:01:35;;;;;;;;;;;;;;;17.68;49.98;99948.44;5032458;28;1131;-54
2024/02/12 06:04:00;;;;;;;;;;;;;;;17.76;49.42;99944.19;5025796;28;1494;-48
2024/02/12 06:06:26;;;;;;;;;;;;;;;17.00;49.92;99939.63;5036192;28;1898;-51
2024/02/12 06:08:51;;;;;;;;;;;;;;;16.69;49.23;99939.19;5026269;28;1043;-50
2024/02/12 06:11:17;;;;;;;;;;;;;;;16.57;48.30;99929.44;5032823;28;1131;-48
2024/02/12 06:13:42;;;;;;;;;;;;;;;16.58;48.71;99931.09;5029652;28;937;-49
2024/02/12 06:16:08;;;;;;;;;;;;;;;17.98;49.61;99934.47;5030452;28;1135;-48
2024/02/12 06:18:33;;;;;;;;;;;;;;;16.94;50.63;99929.81;5019989;28;2191;-49
2024/02/12 06:20:59;;;;;;;;;;;;;;;16.75;49.46;99919.59;5025880;28;1025;-46
2024/02/12 06:23:25;;;;;;;;;;;;;;;16.84;49.77;99899.72;5027285;28;1090;-50
2024/02/12 06:25:50;;;;;;;;;;;;;;;17.73;49.92;99920.84;5022841;28;1898;-51
2024/02/12 06:28:17;;;;;;;;;;;;;;;16.97;50.30;99933.91;5022229;28;997;-51
2024/02/12 06:30:42;;;;;;;;;;;;;;;16.63;49.34;99923.91;5019158;28;1020;-49
2024/02/12 06:33:08;;;;;;;;;;;;;;;17.68;50.13;99925.63;5028918;28;1027;-51
2024/02/12 06:35:33;;;;;;;;;;;;;;;17.31;50.55;99914.44;5025573;28;1191;-47
2024/02/12 06:38:03;;;;;;;;;;;;;;;16.93;49.88;99912.53;5030227;28;952;-50
2024/02/12 06:40:32;;;;;;;;;;;;;;;16.63;48.88;99905.50;5022089;28;1108;-50
2024/02/12 06:43:02;;;;;;;;;;;;;;;17.08;49.60;99903.25;5029393;28;1156;-49
2024/02/12 06:45:28;;;;;;;;;;;;;;;18.12;49.25;99905.06;5023204;28;1957;-52
2024/02/12 06:48:11;;;;;;;;;;;;;;;17.04;50.20;99902.22;5026631;28;1396;-51
2024/02/12 06:50:38;;;;;;;;;;;;;;;16.85;49.34;99896.69;5019329;28;1211;-50
2024/02/12 06:53:07;;;;;;;;;;;;;;;16.98;49.94;99903.38;5019656;28;1373;-51
2024/02/12 06:55:33;;;;;;;;;;;;;;;18.22;49.10;99906.78;5021396;28;1356;-51
2024/02/12 06:57:58;;;;;;;;;;;;;;;17.19;50.31;99897.59;5023676;28;1183;-44
2024/02/12 07:00:26;;;;;;;;;;;;;;;16.87;49.48;99908.19;5019297;28;1101;-50
2024/02/12 07:02:54;;;;;;;;;;;;;;;16.74;48.68;99919.91;5019404;28;1087;-49
2024/02/12 07:05:19;;;;;;;;;;;;;;;17.16;49.93;99909.97;5032439;28;1144;-47
2024/02/12 07:07:45;;;;;;;;;;;;;;;17.62;50.07;99911.97;5028017;28;1991;-48
2024/02/12 07:10:11;;;;;;;;;;;;;;;16.95;50.19;99914.97;5021277;28;1118;-47
2024/02/12 07:12:39;;;;;;;;;;;;;;;16.75;49.18;99900.38;5029455;28;1129;-48
2024/02/12 07:15:08;;;;;;;;;;;;;;;17.64;49.97;99899.88;5021929;28;1119;-47
2024/02/12 07:17:34;;;;;;;;;;;;;;;16.89;50.30;99894.19;5019966;28;1304;-47
2024/02/12 07:20:02;;;;;;;;;;;;;;;17.17;50.24;99892.41;5034262;28;1044;-50
2024/02/12 07:22:27;;;;;;;;;;;;;;;17.62;49.79;99900.16;5019213;28;1106;-51
2024/02/12 07:24:53;;;;;;;;;;;;;;;16.97;49.69;99899.03;5018674;28;1051;-48
2024/02/12 07:27:18;;;;;;;;;;;;;;;17.64;50.04;99897.91;5018812;28;1989;-46
2024/02/12 07:29:48;;;;;;;;;;;;;;;17.39;49.82;99875.28;5018786;28;1051;-48
2024/02/12 07:32:13;;;;;;;;;;;;;;;16.99;49.51;99868.50;5018597;28;1161;-46
2024/02/12 07:34:39;;;;;;;;;;;;;;;16.81;48.60;99873.69;5018763;28;1210;-49
2024/02/12 07:37:05;;;;;;;;;;;;;;;16.71;47.76;99877.38;5029976;28;1087;-49
2024/02/12 07:39:31;;;;;;;;;;;;;;;17.01;48.59;99878.09;5035825;28;1074;-52
2024/02/12 07:41:59;;;;;;;;;;;;;;;17.52;49.73;99872.88;5021615;28;1289;-49
2024/02/12 07:44:28;;;;;;;;;;;;;;;16.95;49.38;99868.28;5027406;28;1254;-46
2024/02/12 07:46:53;;;;;;;;;;;;;;;16.68;48.78;99869.75;5019602;28;1906;-51
2024/02/12 07:49:22;;;;;;;;;;;;;;;16.58;47.91;99872.66;5018001;28;1277;-50
2024/02/12 07:51:51;;;;;;;;;;;;;;;17.35;49.15;99865.16;5021050;28;1110;-50
2024/02/12 07:54:16;;;;;;;;;;;;;;;17.71;49.52;99865.38;5027907;28;1324;-51
2024/02/12 07:56:42;;;;;;;;;;;;;;;17.05;49.62;99865.38;5031042;28;1301;-52
2024/02/12 07:59:08;;;;;;;;;;;;;;;16.80;49.00;99873.97;5028651;28;1124;-49
2024/02/12 08:01:51;;;;;;;;;;;;;;;16.63;48.15;99869.81;5036140;28;1389;-53
2024/02/12 08:04:19;;;;;;;;;;;;;;;17.93;49.30;99866.63;5024738;28;1360;-49
2024/02/12 08:06:44;;;;;;;;;;;;;;;17.91;49.60;99855.13;5030993;28;1975;-50
2024/02/12 08:09:10;;;;;;;;;;;;;;;17.24;49.61;99862.59;5031363;28;1345;-47
2024/02/12 08:11:37;;;;;;;;;;;;;;;16.92;48.80;99857.91;5018192;28;1115;-52
2024/02/12 08:14:02;;;;;;;;;;;;;;;16.72;48.17;99859.81;5017869;28;1341;-52
2024/02/12 08:16:33;;;;;;;;;;;;;;;16.54;48.00;99849.66;5017859;28;1341;-50
2024/02/12 08:19:04;;;;;;;;;;;;;;;17.51;49.54;99857.50;5030829;28;1131;-50
2024/02/12 08:21:29;;;;;;;;;;;;;;;17.43;50.03;99870.81;5017914;28;1122;-53
2024/02/12 08:23:55;;;;;;;;;;;;;;;16.89;49.49;99856.56;5030340;28;1302;-51
2024/02/12 08:26:22;;;;;;;;;;;;;;;16.63;48.89;99858.84;5019793;28;1972;-52
2024/02/12 08:28:47;;;;;;;;;;;;;;;18.21;48.99;99877.63;5030512;28;1333;-51
2024/02/12 08:31:17;;;;;;;;;;;;;;;17.26;49.79;99881.53;5030825;28;1271;-49
2024/02/12 08:33:42;;;;;;;;;;;;;;;16.96;48.72;99871.84;5030484;28;1044;-48
2024/02/12 08:36:08;;;;;;;;;;;;;;;16.79;48.17;99864.94;5023756;28;1059;-51
2024/02/12 08:38:33;;;;;;;;;;;;;;;16.67;47.33;99868.09;5018406;28;1432;-52
2024/02/12 08:41:00;;;;;;;;;;;;;;;16.51;47.11;99850.22;5023682;28;1375;-50
2024/02/12 08:43:25;;;;;;;;;;;;;;;16.56;47.46;99863.88;5022662;28;1435;-49
2024/02/12 08:45:51;;;;;;;;;;;;;;;17.99;48.96;99862.66;5027572;28;1914;-50
2024/02/12 08:48:17;;;;;;;;;;;;;;;17.04;49.97;99852.78;5018110;28;1480;-53
2024/02/12 08:50:42;;;;;;;;;;;;;;;16.75;49.18;99840.00;5026871;28;1190;-51
2024/02/12 08:53:08;;;;;;;;;;;;;;;16.58;48.18;99845.19;5026062;28;1424;-52
2024/02/12 08:55:34;;;;;;;;;;;;;;;16.53;47.61;99842.53;5017571;28;1122;-53
2024/02/12 08:58:00;;;;;;;;;;;;;;;17.96;48.89;99838.50;5025813;28;1447;-51
2024/02/12 09:00:27;;;;;;;;;;;;;;;17.30;49.95;99824.84;5015057;28;1229;-50
2024/02/12 09:02:53;;;;;;;;;;;;;;;16.86;49.12;99817.88;5019540;28;1043;-53
2024/02/12 09:05:18;;;;;;;;;;;;;;;16.72;48.08;99807.66;5029808;28;1392;-50
2024/02/12 09:07:44;;;;;;;;;;;;;;;17.78;49.05;99810.78;5029012;28;1913;-50
2024/02/12 09:10:11;;;;;;;;;;;;;;;17.43;49.54;99793.03;5023287;28;1222;-53
2024/02/12 09:12:37;;;;;;;;;;;;;;;16.83;49.21;99785.50;5024087;28;1058;-52
2024/02/12 09:15:10;;;;;;;;;;;;;;;16.83;48.08;99782.78;5035287;28;1451;-50
2024/02/12 09:17:36;;;;;;;;;;;;;;;16.56;47.79;99776.06;5022689;28;1273;-51
2024/02/12 09:20:02;;;;;;;;;;;;;;;16.96;48.50;99773.81;5028815;28;1119;-51
2024/02/12 09:22:27;;;;;;;;;;;;;;;18.34;48.54;99763.16;5029730;28;1415;-50
2024/02/12 09:24:53;;;;;;;;;;;;;;;17.21;49.97;99769.81;5024224;28;1395;-48
2024/02/12 09:27:18;;;;;;;;;;;;;;;16.96;49.02;99762.00;5022769;28;1909;-49
2024/02/12 09:29:47;;;;;;;;;;;;;;;16.82;48.31;99772.94;5028727;28;1159;-52
2024/02/12 09:32:13;;;;;;;;;;;;;;;16.58;47.48;99760.13;5016794;28;1462;-50
2024/02/12 09:34:39;;;;;;;;;;;;;;;17.81;49.10;99761.78;5024955;28;1412;-51
2024/02/12 09:37:04;;;;;;;;;;;;;;;17.48;49.76;99734.41;5036045;28;1067;-50
2024/02/12 09:39:31;;;;;;;;;;;;;;;17.05;49.18;99738.22;5027650;28;1019;-50
2024/02/12 09:41:56;;;;;;;;;;;;;;;18.02;49.05;99732.78;5021528;28;1458;-47
2024/02/12 09:44:23;;;;;;;;;;;;;;;17.20;49.54;99728.91;5023306;28;1400;-49
2024/02/12 09:46:48;;;;;;;;;;;;;;;16.97;48.69;99726.00;5021871;28;1973;-49
2024/02/12 09:49:16;;;;;;;;;;;;;;;16.84;47.89;99710.28;5028166;28;1297;-47
2024/02/12 09:51:43;;;;;;;;;;;;;;;16.92;48.56;99718.66;5016315;28;1080;-48
2024/02/12 09:54:08;;;;;;;;;;;;;;;18.32;48.34;99735.16;5016317;28;1401;-51
2024/02/12 09:56:34;;;;;;;;;;;;;;;17.22;49.49;99732.16;5026603;28;1310;-52
2024/02/12 09:59:00;;;;;;;;;;;;;;;16.96;48.49;99740.03;5018343;28;1360;-50
2024/02/12 10:01:25;;;;;;;;;;;;;;;16.93;47.68;99744.22;5035646;28;1340;-49
2024/02/12 10:03:51;;;;;;;;;;;;;;;17.19;48.42;99732.75;5024354;28;1513;-51
2024/02/12 10:06:17;;;;;;;;;;;;;;;17.76;49.05;99732.47;5014622;28;1909;-50
2024/02/12 10:08:43;;;;;;;;;;;;;;;17.00;49.56;99711.69;5015694;28;1021;-52
2024/02/12 10:11:09;;;;;;;;;;;;;;;16.91;48.15;99688.75;5034258;28;1029;-51
2024/02/12 10:13:34;;;;;;;;;;;;;;;16.96;48.41;99702.41;5024063;28;1043;-49
2024/02/12 10:16:00;;;;;;;;;;;;;;;17.79;48.86;99701.59;5016494;28;960;-51
2024/02/12 10:18:26;;;;;;;;;;;;;;;17.13;49.13;99696.31;5016096;28;1146;-47
2024/02/12 10:20:52;;;;;;;;;;;;;;;16.93;48.36;99684.59;5016537;28;1092;-51
2024/02/12 10:23:19;;;;;;;;;;;;;;;16.81;47.58;99659.53;5029426;28;1103;-49
2024/02/12 10:25:47;;;;;;;;;;;;;;;17.43;48.40;99639.97;5016118;28;1902;-48
2024/02/12 10:28:13;;;;;;;;;;;;;;;17.29;49.09;99639.13;5015663;28;917;-50
2024/02/12 10:30:40;;;;;;;;;;;;;;;16.93;48.48;99634.38;5029483;28;1211;-51
2024/02/12 10:33:06;;;;;;;;;;;;;;;16.75;48.00;99642.34;5016336;28;1164;-49
2024/02/12 10:35:32;;;;;;;;;;;;;;;18.33;47.84;99634.94;5015232;28;1172;-50
2024/02/12 10:37:57;;;;;;;;;;;;;;;17.30;48.69;99662.75;5014647;28;1179;-51
2024/02/12 10:40:27;;;;;;;;;;;;;;;17.02;48.37;99690.19;5018116;28;1109;-49
2024/02/12 10:42:52;;;;;;;;;;;;;;;16.82;47.64;99696.06;5026830;28;1106;-52
2024/02/12 10:45:18;;;;;;;;;;;;;;;17.50;48.20;99688.19;5014969;28;1120;-48
2024/02/12 10:47:43;;;;;;;;;;;;;;;17.82;48.49;99684.47;5024259;28;1963;-49
2024/02/12 10:50:13;;;;;;;;;;;;;;;17.24;48.66;99677.72;5029221;28;1138;-49
2024/02/12 10:52:41;;;;;;;;;;;;;;;17.00;47.88;99659.50;5033725;28;1408;-48
2024/02/12 10:55:09;;;;;;;;;;;;;;;17.10;47.93;99656.53;5026246;28;1163;-47
2024/02/12 10:57:43;;;;;;;;;;;;;;;17.81;48.34;99655.38;5024516;28;1071;-48
2024/02/12 11:00:30;;;;;;;;;;;;;;;17.08;48.56;99652.47;5017694;28;1025;-53
2024/02/12 11:02:55;;;;;;;;;;;;;;;16.85;47.98;99646.81;5024200;28;1067;-50
2024/02/12 11:05:21;;;;;;;;;;;;;;;16.76;47.06;99632.19;5024663;28;1080;-50
2024/02/12 11:07:46;;;;;;;;;;;;;;;17.01;47.64;99644.66;5025698;28;1915;-50
2024/02/12 11:10:17;;;;;;;;;;;;;;;17.88;47.77;99643.94;5020066;28;1184;-49
2024/02/12 11:12:45;;;;;;;;;;;;;;;17.18;48.47;99648.72;5031218;28;1024;-51
2024/02/12 11:15:12;;;;;;;;;;;;;;;16.94;47.84;99649.72;5019657;28;1059;-51
2024/02/12 11:17:38;;;;;;;;;;;;;;;17.16;48.32;99642.72;5031588;28;1063;-52
2024/02/12 11:20:07;;;;;;;;;;;;;;;17.50;48.63;99611.22;5019513;28;1075;-52
2024/02/12 11:22:33;;;;;;;;;;;;;;;17.02;48.47;99627.03;5032124;28;1079;-52
2024/02/12 11:25:03;;;;;;;;;;;;;;;16.83;47.38;99642.75;5019036;28;1150;-51
2024/02/12 11:28:01;;;;;;;;;;;;;;;16.75;46.94;99642.34;5018805;28;1914;-48
2024/02/12 11:30:26;;;;;;;;;;;;;;;17.28;47.35;99632.84;5006327;28;1314;-50
2024/02/12 11:32:56;;;;;;;;;;;;;;;17.89;47.72;99640.91;5029837;28;1142;-51
2024/02/12 11:35:21;;;;;;;;;;;;;;;17.12;48.39;99631.50;5024068;28;1055;-49
2024/02/12 11:37:56;;;;;;;;;;;;;;;16.90;47.65;99627.53;5032933;28;1297;-50
2024/02/12 11:40:21;;;;;;;;;;;;;;;16.73;47.09;99619.03;5035965;28;1123;-50
2024/02/12 11:42:49;;;;;;;;;;;;;;;16.85;46.82;99629.53;5030783;28;1091;-51
2024/02/12 11:45:18;;;;;;;;;;;;;;;18.36;47.02;99620.56;5018181;28;1139;-51
2024/02/12 11:47:46;;;;;;;;;;;;;;;17.26;48.54;99618.59;5018631;28;1971;-49
2024/02/12 11:50:24;;;;;;;;;;;;;;;17.06;47.99;99619.00;5018043;28;1171;-48
2024/02/12 11:52:50;;;;;;;;;;;;;;;16.85;47.27;99616.63;5028684;28;988;-51
2024/02/12 11:55:16;;;;;;;;;;;;;;;17.03;48.07;99623.19;5032568;28;1340;-51
2024/02/12 11:57:42;;;;;;;;;;;;;;;18.22;47.00;99621.44;5016436;28;1124;-43
2024/02/12 12:00:16;;;;;;;;;;;;;;;17.34;48.36;99614.31;5015708;28;1439;-52
2024/02/12 12:02:51;;;;;;;;;;;;;;;16.92;47.47;99613.50;5028384;28;1171;-49
2024/02/12 12:05:26;;;;;;;;;;;;;;;16.85;47.01;99604.84;5018003;28;989;-46
2024/02/12 12:07:52;;;;;;;;;;;;;;;18.46;46.85;99595.53;5017470;28;1971;-49
2024/02/12 12:10:27;;;;;;;;;;;;;;;17.65;48.17;99596.34;5016307;28;1088;-50
2024/02/12 12:12:53;;;;;;;;;;;;;;;17.19;47.70;99598.16;5020413;28;1001;-50
2024/02/12 12:15:19;;;;;;;;;;;;;;;16.98;47.29;99595.81;5031970;28;1078;-51
2024/02/12 12:17:46;;;;;;;;;;;;;;;16.90;46.71;99633.03;5017704;28;1149;-51
2024/02/12 12:20:18;;;;;;;;;;;;;;;16.79;45.99;99631.56;5024773;28;1194;-50
2024/02/12 12:22:47;;;;;;;;;;;;;;;18.23;47.18;99671.75;5022801;28;1038;-50
2024/02/12 12:25:12;;;;;;;;;;;;;;;17.22;48.32;99657.97;5023575;28;1092;-46
2024/02/12 12:27:38;;;;;;;;;;;;;;;17.07;47.56;99648.91;5017506;28;1974;-49
2024/02/12 12:30:14;;;;;;;;;;;;;;;16.85;47.32;99676.22;5017904;28;1136;-46
2024/02/12 12:32:43;;;;;;;;;;;;;;;17.83;47.56;99661.38;5020529;28;1095;-47
2024/02/12 12:35:09;;;;;;;;;;;;;;;17.95;47.70;99669.94;5018095;28;960;-46
2024/02/12 12:37:35;;;;;;;;;;;;;;;17.24;47.96;99653.81;5030338;28;1238;-50
2024/02/12 12:40:08;;;;;;;;;;;;;;;17.02;47.69;99662.72;5017277;28;1056;-45
2024/02/12 12:42:42;;;;;;;;;;;;;;;18.39;46.58;99648.25;5017267;28;1182;-49
2024/02/12 12:45:10;;;;;;;;;;;;;;;17.36;48.28;99634.06;5029000;28;1083;-52
2024/02/12 12:47:36;;;;;;;;;;;;;;;17.11;47.36;99635.41;5025640;28;1902;-55
2024/02/12 12:50:02;;;;;;;;;;;;;;;16.95;46.69;99639.56;5022620;28;1193;-48
2024/02/12 12:52:30;;;;;;;;;;;;;;;16.84;46.37;99631.47;5028281;28;1056;-46
2024/02/12 12:54:56;;;;;;;;;;;;;;;16.66;46.07;99637.84;5030527;28;1134;-47
2024/02/12 12:57:22;;;;;;;;;;;;;;;16.46;46.04;99650.81;5026028;28;1425;-52
2024/02/12 12:59:49;;;;;;;;;;;;;;;16.86;46.23;99650.41;5026604;28;1112;-49
2024/02/12 13:02:14;;;;;;;;;;;;;;;18.28;46.86;99655.13;5031767;28;1103;-49
2024/02/12 13:04:39;;;;;;;;;;;;;;;17.32;48.44;99663.28;5017201;28;885;-51
2024/02/12 13:07:06;;;;;;;;;;;;;;;17.05;47.60;99666.81;5030169;28;1906;-51
2024/02/12 13:09:32;;;;;;;;;;;;;;;16.83;47.29;99653.72;5017116;28;1060;-48
2024/02/12 13:11:57;;;;;;;;;;;;;;;17.35;47.81;99665.41;5016609;28;1032;-49
2024/02/12 13:14:23;;;;;;;;;;;;;;;17.83;47.74;99666.06;5016369;28;1099;-49